Time;durP1;ratioP1;P1;durP2;ratioP2;P2;SDS_P1;SDS_P2;PMS_P1;PMS_P2;Temp;Humidity;BMP_temperature;BMP_pressure;BME280_temperature;BME280_humidity;BME280_pressure;Samples;Min_cycle;Max_cycle;Signal;HPM_P1;HPM_P2
2023/04/17 00:00:04;;;;;;;7.70;3.28;;;;;;;;;;5111838;28;20056;-71
2023/04/17 00:02:31;;;;;;;8.40;3.08;;;;;;;;;;5112152;28;20016;-71
2023/04/17 00:04:57;;;;;;;6.10;3.20;;;;;;;;;;5112242;28;20114;-72
2023/04/17 00:07:23;;;;;;;8.82;3.53;;;;;;;;;;5111910;28;20028;-71
2023/04/17 00:09:49;;;;;;;5.60;3.28;;;;;;;;;;5111742;28;20073;-72
2023/04/17 00:12:16;;;;;;;6.30;3.53;;;;;;;;;;5111866;28;20023;-73
2023/04/17 00:14:42;;;;;;;6.57;3.20;;;;;;;;;;5111847;28;20573;-71
2023/04/17 00:17:08;;;;;;;5.00;3.38;;;;;;;;;;5111736;28;20472;-72
2023/04/17 00:19:34;;;;;;;6.70;3.88;;;;;;;;;;5111764;28;20019;-72
2023/04/17 00:22:00;;;;;;;7.93;3.50;;;;;;;;;;5111797;28;20030;-72
2023/04/17 00:24:26;;;;;;;5.60;3.30;;;;;;;;;;5111808;28;20019;-71
2023/04/17 00:26:52;;;;;;;5.57;3.33;;;;;;;;;;5111555;28;20028;-72
2023/04/17 00:29:18;;;;;;;6.47;3.22;;;;;;;;;;5111667;28;20051;-72
2023/04/17 00:31:44;;;;;;;6.65;3.80;;;;;;;;;;5111868;28;20020;-73
2023/04/17 00:34:10;;;;;;;7.53;4.07;;;;;;;;;;5111474;28;20020;-72
2023/04/17 00:36:36;;;;;;;9.45;4.10;;;;;;;;;;5093337;28;20019;-72
2023/04/17 00:39:02;;;;;;;8.48;4.53;;;;;;;;;;5111624;28;20115;-72
2023/04/17 00:41:28;;;;;;;8.02;4.03;;;;;;;;;;5111393;28;20036;-72
2023/04/17 00:43:54;;;;;;;6.82;4.05;;;;;;;;;;5111521;28;20069;-73
2023/04/17 00:46:20;;;;;;;7.50;4.47;;;;;;;;;;5093033;28;20164;-71
2023/04/17 00:48:46;;;;;;;10.40;4.20;;;;;;;;;;5111302;28;20422;-72
2023/04/17 00:51:12;;;;;;;8.32;4.75;;;;;;;;;;5111300;28;20063;-72
2023/04/17 00:53:38;;;;;;;9.77;3.97;;;;;;;;;;5111503;28;20030;-72
2023/04/17 00:56:05;;;;;;;5.25;3.90;;;;;;;;;;5111439;28;20039;-73
2023/04/17 00:58:32;;;;;;;5.63;3.60;;;;;;;;;;5111364;28;20027;-72
2023/04/17 01:00:58;;;;;;;14.02;3.40;;;;;;;;;;5111223;28;20039;-73
2023/04/17 01:03:25;;;;;;;6.97;3.40;;;;;;;;;;5111244;28;20046;-72
2023/04/17 01:05:51;;;;;;;6.20;2.90;;;;;;;;;;5111321;28;20028;-72
2023/04/17 01:08:18;;;;;;;7.63;3.33;;;;;;;;;;5115296;28;20024;-72
2023/04/17 01:10:44;;;;;;;10.02;3.35;;;;;;;;;;5115164;28;20448;-72
2023/04/17 01:13:10;;;;;;;5.80;2.75;;;;;;;;;;5114132;28;20031;-72
2023/04/17 01:15:36;;;;;;;8.32;2.90;;;;;;;;;;5115398;28;20034;-72
2023/04/17 01:18:02;;;;;;;6.32;3.00;;;;;;;;;;5115374;28;20058;-71
2023/04/17 01:20:29;;;;;;;8.05;2.90;;;;;;;;;;5114826;28;20062;-71
2023/04/17 01:22:56;;;;;;;9.38;3.50;;;;;;;;;;5115019;28;20020;-71
2023/04/17 01:25:22;;;;;;;5.50;3.45;;;;;;;;;;5115357;28;20487;-72
2023/04/17 01:27:49;;;;;;;10.65;3.60;;;;;;;;;;5115013;28;20035;-72
2023/04/17 01:30:15;;;;;;;8.52;2.55;;;;;;;;;;5114882;28;20024;-73
2023/04/17 01:32:41;;;;;;;5.75;2.20;;;;;;;;;;5114837;28;20581;-73
2023/04/17 01:35:07;;;;;;;7.65;2.92;;;;;;;;;;5114546;28;20603;-72
2023/04/17 01:37:33;;;;;;;4.88;2.40;;;;;;;;;;5114697;28;20072;-73
2023/04/17 01:39:59;;;;;;;6.00;2.72;;;;;;;;;;5114774;28;20024;-72
2023/04/17 01:42:26;;;;;;;7.15;2.75;;;;;;;;;;5114748;28;20042;-72
2023/04/17 01:44:52;;;;;;;6.97;2.90;;;;;;;;;;5114721;28;20024;-72
2023/04/17 01:47:18;;;;;;;5.85;2.50;;;;;;;;;;5114257;28;20043;-72
2023/04/17 01:49:44;;;;;;;6.70;2.83;;;;;;;;;;5114671;28;20024;-72
2023/04/17 01:52:10;;;;;;;8.23;2.90;;;;;;;;;;5113335;28;20024;-72
2023/04/17 01:54:36;;;;;;;5.35;2.63;;;;;;;;;;5114420;28;20035;-72
2023/04/17 01:57:02;;;;;;;5.78;3.08;;;;;;;;;;5114418;28;20042;-72
2023/04/17 01:59:28;;;;;;;5.70;2.70;;;;;;;;;;5114221;28;20043;-73
2023/04/17 02:01:55;;;;;;;5.72;3.33;;;;;;;;;;5114298;28;20035;-72
2023/04/17 02:04:21;;;;;;;7.45;3.22;;;;;;;;;;5114401;28;20039;-75
2023/04/17 02:06:47;;;;;;;5.85;3.13;;;;;;;;;;5114147;28;20495;-72
2023/04/17 02:09:13;;;;;;;7.13;3.50;;;;;;;;;;5112678;28;20027;-72
2023/04/17 02:11:40;;;;;;;10.45;4.80;;;;;;;;;;5114221;28;20069;-72
2023/04/17 02:14:06;;;;;;;7.43;4.57;;;;;;;;;;5114152;28;20034;-72
2023/04/17 02:16:32;;;;;;;9.32;4.15;;;;;;;;;;5114019;28;20088;-72
2023/04/17 02:18:58;;;;;;;7.18;3.78;;;;;;;;;;5113952;28;20024;-71
2023/04/17 02:21:26;;;;;;;8.10;4.00;;;;;;;;;;5113957;28;20143;-71
2023/04/17 02:23:52;;;;;;;8.07;4.05;;;;;;;;;;5114122;28;20027;-71
2023/04/17 02:26:18;;;;;;;9.15;4.00;;;;;;;;;;5113868;27;20023;-72
2023/04/17 02:28:45;;;;;;;11.57;4.30;;;;;;;;;;5113769;28;20024;-72
2023/04/17 02:31:11;;;;;;;9.48;4.35;;;;;;;;;;5113464;28;20460;-71
2023/04/17 02:33:37;;;;;;;7.15;4.20;;;;;;;;;;5113791;28;20020;-71
2023/04/17 02:36:04;;;;;;;10.57;4.47;;;;;;;;;;5113624;28;20034;-71
2023/04/17 02:38:30;;;;;;;13.35;4.90;;;;;;;;;;5113872;28;20020;-73
2023/04/17 02:40:56;;;;;;;9.77;4.70;;;;;;;;;;5113383;28;20031;-73
2023/04/17 02:43:22;;;;;;;7.47;4.68;;;;;;;;;;5113595;28;20031;-72
2023/04/17 02:45:49;;;;;;;9.60;5.90;;;;;;;;;;5113502;28;20402;-72
2023/04/17 02:48:15;;;;;;;6.80;5.03;;;;;;;;;;5113405;28;20384;-72
2023/04/17 02:50:41;;;;;;;12.52;5.57;;;;;;;;;;5113147;28;20095;-74
2023/04/17 02:53:07;;;;;;;8.65;5.03;;;;;;;;;;5112061;28;20110;-74
2023/04/17 02:55:33;;;;;;;7.25;5.22;;;;;;;;;;5113332;28;20416;-74
2023/04/17 02:58:00;;;;;;;8.75;5.07;;;;;;;;;;5113148;28;20387;-72
2023/04/17 03:00:26;;;;;;;11.07;6.38;;;;;;;;;;5113032;28;20051;-73
2023/04/17 03:02:52;;;;;;;11.85;6.05;;;;;;;;;;5113292;28;20383;-72
2023/04/17 03:05:24;;;;;;;12.05;6.35;;;;;;;;;;5112942;28;20033;-71
2023/04/17 03:07:50;;;;;;;13.60;6.10;;;;;;;;;;5113263;28;20046;-73
2023/04/17 03:10:17;;;;;;;9.38;6.00;;;;;;;;;;5113005;28;20084;-71
2023/04/17 03:12:43;;;;;;;10.52;6.43;;;;;;;;;;5112694;28;20384;-72
2023/04/17 03:15:09;;;;;;;13.10;6.07;;;;;;;;;;5112970;28;20369;-72
2023/04/17 03:17:35;;;;;;;13.23;5.57;;;;;;;;;;5112851;28;20475;-72
2023/04/17 03:20:02;;;;;;;12.38;5.90;;;;;;;;;;5112672;28;20552;-72
2023/04/17 03:22:28;;;;;;;15.20;6.28;;;;;;;;;;5112786;27;20479;-73
2023/04/17 03:24:54;;;;;;;15.82;6.57;;;;;;;;;;5112603;28;20424;-72
2023/04/17 03:27:23;;;;;;;16.38;9.60;;;;;;;;;;5112516;28;20118;-72
2023/04/17 03:29:50;;;;;;;22.58;10.45;;;;;;;;;;5112278;28;20016;-73
2023/04/17 03:32:16;;;;;;;17.27;10.38;;;;;;;;;;5112702;28;20584;-72
2023/04/17 03:34:42;;;;;;;20.55;11.13;;;;;;;;;;5112458;28;20099;-73
2023/04/17 03:37:08;;;;;;;19.52;11.32;;;;;;;;;;5112398;28;20030;-73
2023/04/17 03:39:34;;;;;;;21.75;12.48;;;;;;;;;;5112341;28;20023;-74
2023/04/17 03:42:00;;;;;;;24.52;13.13;;;;;;;;;;5112458;28;20106;-73
2023/04/17 03:44:26;;;;;;;20.35;13.38;;;;;;;;;;5112262;28;20055;-74
2023/04/17 03:46:52;;;;;;;22.48;13.25;;;;;;;;;;5112170;28;20043;-76
2023/04/17 03:49:18;;;;;;;23.42;13.68;;;;;;;;;;5112192;28;20020;-75
2023/04/17 03:51:44;;;;;;;23.80;14.98;;;;;;;;;;5112228;28;20024;-75
2023/04/17 03:54:10;;;;;;;27.10;14.27;;;;;;;;;;5112092;28;20027;-73
2023/04/17 03:56:36;;;;;;;24.20;13.57;;;;;;;;;;5112100;28;20375;-73
2023/04/17 03:59:03;;;;;;;26.05;13.23;;;;;;;;;;5112334;28;20023;-74
2023/04/17 04:01:31;;;;;;;27.23;13.93;;;;;;;;;;5112037;28;20043;-74
2023/04/17 04:03:58;;;;;;;25.38;14.15;;;;;;;;;;5112067;28;20383;-75
2023/04/17 04:06:24;;;;;;;21.67;12.80;;;;;;;;;;5110529;28;20072;-74
2023/04/17 04:08:50;;;;;;;27.88;14.45;;;;;;;;;;5111878;28;20027;-72
2023/04/17 04:11:16;;;;;;;26.45;13.48;;;;;;;;;;5111801;28;20027;-73
2023/04/17 04:13:42;;;;;;;22.98;13.65;;;;;;;;;;5112039;28;20102;-73
2023/04/17 04:16:08;;;;;;;22.05;13.57;;;;;;;;;;5110619;28;20089;-73
2023/04/17 04:18:35;;;;;;;23.35;14.13;;;;;;;;;;5110253;28;20030;-72
2023/04/17 04:21:01;;;;;;;27.08;14.30;;;;;;;;;;5111738;28;20031;-73
2023/04/17 04:23:29;;;;;;;25.63;14.85;;;;;;;;;;5111836;28;20073;-74
2023/04/17 04:26:00;;;;;;;24.35;15.07;;;;;;;;;;5111843;28;20114;-74
2023/04/17 04:28:26;;;;;;;29.23;16.27;;;;;;;;;;5111866;28;20053;-72
2023/04/17 04:30:53;;;;;;;30.60;15.75;;;;;;;;;;5111740;28;20031;-72
2023/04/17 04:33:20;;;;;;;29.45;16.23;;;;;;;;;;5111636;28;20031;-74
2023/04/17 04:35:46;;;;;;;30.33;17.33;;;;;;;;;;5111751;28;20109;-74
2023/04/17 04:38:14;;;;;;;29.88;17.27;;;;;;;;;;5110208;28;20059;-73
2023/04/17 04:40:42;;;;;;;34.92;17.77;;;;;;;;;;5111983;28;20039;-72
2023/04/17 04:43:11;;;;;;;27.35;15.98;;;;;;;;;;5115350;28;20044;-73
2023/04/17 04:45:37;;;;;;;25.73;14.57;;;;;;;;;;5114427;28;20349;-72
2023/04/17 04:48:03;;;;;;;26.73;14.77;;;;;;;;;;5115887;28;20084;-73
2023/04/17 04:50:29;;;;;;;23.10;14.55;;;;;;;;;;5115522;28;20108;-74
2023/04/17 04:52:55;;;;;;;26.50;14.68;;;;;;;;;;5115655;28;20023;-73
2023/04/17 04:55:21;;;;;;;25.67;13.88;;;;;;;;;;5115529;28;20031;-72
2023/04/17 04:57:47;;;;;;;27.58;15.30;;;;;;;;;;5115536;28;20019;-72
2023/04/17 05:00:14;;;;;;;28.50;15.63;;;;;;;;;;5115358;28;20033;-74
2023/04/17 05:02:40;;;;;;;27.90;15.57;;;;;;;;;;5115505;28;20060;-73
2023/04/17 05:05:08;;;;;;;26.92;14.68;;;;;;;;;;5115392;28;20073;-73
2023/04/17 05:07:34;;;;;;;20.33;12.90;;;;;;;;;;5115450;28;20553;-74
2023/04/17 05:10:00;;;;;;;28.23;16.65;;;;;;;;;;5113855;28;20051;-74
2023/04/17 05:12:26;;;;;;;25.40;15.30;;;;;;;;;;5115506;28;20073;-74
2023/04/17 05:14:52;;;;;;;26.48;14.75;;;;;;;;;;5115072;28;20027;-73
2023/04/17 05:17:18;;;;;;;32.13;17.90;;;;;;;;;;5115090;28;20023;-73
2023/04/17 05:19:44;;;;;;;36.15;18.05;;;;;;;;;;5114857;28;20020;-73
2023/04/17 05:22:11;;;;;;;38.78;20.63;;;;;;;;;;5115053;28;20035;-75
2023/04/17 05:24:37;;;;;;;37.50;21.60;;;;;;;;;;5115098;28;20027;-73
2023/04/17 05:27:03;;;;;;;42.35;22.27;;;;;;;;;;5114858;28;20024;-74
2023/04/17 05:29:29;;;;;;;46.28;24.25;;;;;;;;;;5115010;28;20016;-72
2023/04/17 05:31:55;;;;;;;43.00;23.83;;;;;;;;;;5114951;28;20476;-72
2023/04/17 05:34:21;;;;;;;44.00;23.15;;;;;;;;;;5111721;28;20028;-74
2023/04/17 05:36:47;;;;;;;40.17;22.73;;;;;;;;;;5115063;28;20123;-74
2023/04/17 05:39:13;;;;;;;38.03;22.13;;;;;;;;;;5114598;28;20034;-73
2023/04/17 05:41:39;;;;;;;35.33;21.63;;;;;;;;;;5114655;28;20027;-73
2023/04/17 05:44:06;;;;;;;38.70;21.33;;;;;;;;;;5114894;28;20027;-73
2023/04/17 05:46:32;;;;;;;35.40;20.77;;;;;;;;;;5114472;28;20048;-73
2023/04/17 05:48:58;;;;;;;36.20;21.00;;;;;;;;;;5114511;28;20026;-73
2023/04/17 05:51:25;;;;;;;36.63;19.27;;;;;;;;;;5114693;28;20106;-73
2023/04/17 05:53:51;;;;;;;32.97;20.80;;;;;;;;;;5114374;28;20023;-71
2023/04/17 05:56:17;;;;;;;31.58;19.70;;;;;;;;;;5114720;28;20028;-72
2023/04/17 05:58:43;;;;;;;34.45;18.73;;;;;;;;;;5114294;28;20020;-72
2023/04/17 06:01:11;;;;;;;31.35;17.90;;;;;;;;;;5114282;28;20042;-71
2023/04/17 06:03:38;;;;;;;26.60;16.75;;;;;;;;;;5113859;27;20434;-71
2023/04/17 06:06:04;;;;;;;29.45;14.57;;;;;;;;;;5114225;28;20034;-71
2023/04/17 06:08:30;;;;;;;26.40;15.88;;;;;;;;;;5114011;28;20030;-70
2023/04/17 06:10:56;;;;;;;26.42;15.00;;;;;;;;;;5114075;28;20027;-71
2023/04/17 06:13:23;;;;;;;28.02;16.58;;;;;;;;;;5114020;28;20038;-73
2023/04/17 06:15:50;;;;;;;22.35;15.02;;;;;;;;;;5113933;28;20047;-70
2023/04/17 06:18:16;;;;;;;25.58;15.10;;;;;;;;;;5114042;28;20024;-71
2023/04/17 06:20:43;;;;;;;28.88;16.20;;;;;;;;;;5113766;28;20036;-70
2023/04/17 06:23:09;;;;;;;25.67;15.65;;;;;;;;;;5113490;28;20026;-70
2023/04/17 06:25:35;;;;;;;24.35;15.07;;;;;;;;;;5111988;28;20392;-71
2023/04/17 06:28:01;;;;;;;27.23;16.30;;;;;;;;;;5112058;28;20026;-71
2023/04/17 06:30:27;;;;;;;25.50;14.90;;;;;;;;;;5111931;28;20023;-70
2023/04/17 06:32:53;;;;;;;23.05;14.13;;;;;;;;;;5111836;28;20020;-72
2023/04/17 06:35:19;;;;;;;24.35;14.57;;;;;;;;;;5111604;28;20126;-74
2023/04/17 06:37:46;;;;;;;21.38;13.30;;;;;;;;;;5111892;28;20020;-73
2023/04/17 06:40:12;;;;;;;22.65;10.93;;;;;;;;;;5113419;28;20024;-73
2023/04/17 06:42:38;;;;;;;14.90;10.38;;;;;;;;;;5113623;28;20031;-72
2023/04/17 06:45:04;;;;;;;19.20;10.65;;;;;;;;;;5113435;28;20111;-73
2023/04/17 06:47:30;;;;;;;22.10;12.23;;;;;;;;;;5113140;28;20399;-73
2023/04/17 06:49:58;;;;;;;16.60;10.93;;;;;;;;;;5113389;28;20027;-72
2023/04/17 06:52:25;;;;;;;15.85;9.35;;;;;;;;;;5113393;28;20409;-72
2023/04/17 06:54:51;;;;;;;13.15;8.98;;;;;;;;;;5113300;28;20361;-72
2023/04/17 06:57:17;;;;;;;14.90;6.93;;;;;;;;;;5113099;28;20020;-71
2023/04/17 06:59:43;;;;;;;9.70;5.90;;;;;;;;;;5113163;28;20080;-72
2023/04/17 07:02:10;;;;;;;10.07;5.60;;;;;;;;;;5113147;28;20080;-73
2023/04/17 07:04:36;;;;;;;10.45;6.53;;;;;;;;;;5112138;28;20069;-73
2023/04/17 07:07:02;;;;;;;10.93;6.10;;;;;;;;;;5113218;28;20058;-72
2023/04/17 07:09:28;;;;;;;13.43;5.80;;;;;;;;;;5112911;28;20024;-72
2023/04/17 07:11:54;;;;;;;8.57;6.13;;;;;;;;;;5112910;28;20024;-73
2023/04/17 07:14:21;;;;;;;9.25;6.05;;;;;;;;;;5112816;28;20027;-73
2023/04/17 07:16:48;;;;;;;12.10;5.85;;;;;;;;;;5112861;27;20506;-71
2023/04/17 07:19:14;;;;;;;11.23;5.60;;;;;;;;;;5111239;28;20510;-71
2023/04/17 07:21:40;;;;;;;9.77;5.88;;;;;;;;;;5111500;28;20039;-70
2023/04/17 07:24:06;;;;;;;8.82;5.75;;;;;;;;;;5112736;28;20023;-72
2023/04/17 07:26:32;;;;;;;14.40;5.40;;;;;;;;;;5112485;28;20126;-71
2023/04/17 07:28:58;;;;;;;11.00;5.35;;;;;;;;;;5112517;28;20023;-72
2023/04/17 07:31:25;;;;;;;22.90;12.13;;;;;;;;;;5112477;28;20011;-72
2023/04/17 07:33:51;;;;;;;23.70;13.88;;;;;;;;;;5112652;28;20487;-73
2023/04/17 07:36:18;;;;;;;20.17;11.80;;;;;;;;;;5112494;28;20032;-73
2023/04/17 07:38:44;;;;;;;22.15;13.00;;;;;;;;;;5112105;28;20042;-74
2023/04/17 07:41:11;;;;;;;24.48;12.23;;;;;;;;;;5112208;28;20045;-72
2023/04/17 07:43:37;;;;;;;19.75;11.50;;;;;;;;;;5112268;28;20019;-74
2023/04/17 07:46:03;;;;;;;21.25;13.02;;;;;;;;;;5111978;28;20044;-72
2023/04/17 07:48:30;;;;;;;20.73;12.18;;;;;;;;;;5112091;28;20065;-73
2023/04/17 07:50:58;;;;;;;23.00;11.20;;;;;;;;;;5112152;28;20051;-72
2023/04/17 07:53:27;;;;;;;14.50;8.35;;;;;;;;;;5111983;28;20047;-73
2023/04/17 07:55:54;;;;;;;13.65;6.32;;;;;;;;;;5112025;28;20055;-73
2023/04/17 07:58:20;;;;;;;14.52;6.72;;;;;;;;;;5111991;28;20028;-72
2023/04/17 08:00:47;;;;;;;14.60;6.65;;;;;;;;;;5111925;28;20024;-72
2023/04/17 08:03:13;;;;;;;11.57;6.13;;;;;;;;;;5111929;28;20107;-72
2023/04/17 08:05:39;;;;;;;14.20;6.32;;;;;;;;;;5111999;28;20073;-72
2023/04/17 08:08:06;;;;;;;13.02;7.15;;;;;;;;;;5111860;28;20030;-72
2023/04/17 08:10:32;;;;;;;12.25;6.10;;;;;;;;;;5111742;28;20015;-72
2023/04/17 08:12:58;;;;;;;11.45;5.95;;;;;;;;;;5111728;28;20264;-72
2023/04/17 08:15:24;;;;;;;16.05;6.28;;;;;;;;;;5111492;28;20115;-71
2023/04/17 08:17:50;;;;;;;8.77;5.10;;;;;;;;;;5111415;28;20039;-72
2023/04/17 08:20:17;;;;;;;7.45;4.47;;;;;;;;;;5111597;28;20035;-72
2023/04/17 08:22:44;;;;;;;8.10;4.38;;;;;;;;;;5112075;28;20703;-72
2023/04/17 08:25:11;;;;;;;9.93;4.55;;;;;;;;;;5111470;28;20111;-72
2023/04/17 08:27:39;;;;;;;8.90;4.20;;;;;;;;;;5111634;28;20030;-73
2023/04/17 08:30:05;;;;;;;10.40;4.55;;;;;;;;;;5111840;28;20028;-71
2023/04/17 08:32:38;;;;;;;9.65;4.45;;;;;;;;;;5111358;28;20016;-70
2023/04/17 08:35:04;;;;;;;12.93;4.80;;;;;;;;;;5111380;28;20020;-70
2023/04/17 08:37:31;;;;;;;9.55;3.92;;;;;;;;;;5111551;28;20024;-71
2023/04/17 08:39:57;;;;;;;8.48;4.13;;;;;;;;;;5111394;28;20112;-72
2023/04/17 08:42:24;;;;;;;8.45;4.55;;;;;;;;;;5111277;28;20434;-72
2023/04/17 08:44:50;;;;;;;13.40;5.78;;;;;;;;;;5111326;28;20027;-73
2023/04/17 08:47:17;;;;;;;8.10;4.50;;;;;;;;;;5111368;28;20436;-73
2023/04/17 08:49:44;;;;;;;13.13;5.80;;;;;;;;;;5111304;28;20024;-71
2023/04/17 08:52:11;;;;;;;11.38;5.60;;;;;;;;;;5111387;28;20106;-71
2023/04/17 08:54:38;;;;;;;13.10;6.07;;;;;;;;;;5111169;28;20028;-74
2023/04/17 08:57:05;;;;;;;9.82;5.43;;;;;;;;;;5111525;28;20024;-72
2023/04/17 08:59:31;;;;;;;9.38;5.55;;;;;;;;;;5110954;28;20052;-71
2023/04/17 09:02:04;;;;;;;13.05;6.15;;;;;;;;;;5110993;28;20032;-74
2023/04/17 09:04:40;;;;;;;10.25;5.68;;;;;;;;;;5111111;28;20489;-72
2023/04/17 09:07:07;;;;;;;8.75;5.95;;;;;;;;;;5110910;28;20360;-72
2023/04/17 09:09:46;;;;;;;10.90;5.53;;;;;;;;;;5110934;28;20039;-72
2023/04/17 09:12:13;;;;;;;9.20;5.30;;;;;;;;;;5111319;28;20081;-70
2023/04/17 09:14:39;;;;;;;8.48;5.72;;;;;;;;;;5111215;28;20077;-70
2023/04/17 09:17:05;;;;;;;8.27;5.25;;;;;;;;;;5111547;28;20023;-70
2023/04/17 09:19:31;;;;;;;9.57;5.05;;;;;;;;;;5110754;28;20024;-69
2023/04/17 09:22:16;;;;;;;6.65;4.70;;;;;;;;;;5111019;28;20130;-70
2023/04/17 09:24:43;;;;;;;9.05;4.88;;;;;;;;;;5111191;28;20089;-69
2023/04/17 09:27:38;;;;;;;10.15;4.95;;;;;;;;;;5111268;28;20368;-70
2023/04/17 09:30:05;;;;;;;7.57;4.88;;;;;;;;;;5100493;28;20055;-69
2023/04/17 09:32:32;;;;;;;11.27;5.05;;;;;;;;;;5115052;28;20027;-69
2023/04/17 09:34:59;;;;;;;10.45;5.40;;;;;;;;;;5114662;28;20223;-69
2023/04/17 09:37:26;;;;;;;10.57;5.40;;;;;;;;;;5114762;28;20047;-70
2023/04/17 09:40:07;;;;;;;11.13;6.43;;;;;;;;;;5114695;28;20069;-70
2023/04/17 09:42:33;;;;;;;11.10;5.40;;;;;;;;;;5114677;28;20080;-69
2023/04/17 09:45:18;;;;;;;13.73;5.50;;;;;;;;;;5114394;28;20028;-68
2023/04/17 09:47:46;;;;;;;8.77;4.70;;;;;;;;;;5113231;28;20458;-69
2023/04/17 09:50:17;;;;;;;8.45;3.70;;;;;;;;;;5114507;28;20040;-69
2023/04/17 09:52:43;;;;;;;9.65;4.50;;;;;;;;;;5114348;28;20016;-69
2023/04/17 09:55:11;;;;;;;8.68;4.57;;;;;;;;;;5114269;28;20169;-69
2023/04/17 09:57:38;;;;;;;8.80;4.25;;;;;;;;;;5114499;28;20164;-70
2023/04/17 10:00:07;;;;;;;9.90;4.50;;;;;;;;;;5112709;28;20039;-69
2023/04/17 10:02:34;;;;;;;8.27;3.90;;;;;;;;;;5113098;28;20383;-69
2023/04/17 10:05:01;;;;;;;5.57;3.90;;;;;;;;;;5114068;28;20019;-69
2023/04/17 10:07:28;;;;;;;8.55;4.15;;;;;;;;;;5114046;28;20019;-68
2023/04/17 10:09:55;;;;;;;9.15;4.45;;;;;;;;;;5113905;28;20012;-69
2023/04/17 10:12:21;;;;;;;8.55;4.38;;;;;;;;;;5113868;28;20024;-69
2023/04/17 10:14:49;;;;;;;6.35;4.20;;;;;;;;;;5114278;28;20034;-70
2023/04/17 10:17:22;;;;;;;6.80;4.50;;;;;;;;;;5114291;28;20024;-72
2023/04/17 10:19:48;;;;;;;7.57;4.78;;;;;;;;;;5113640;28;20031;-72
2023/04/17 10:22:17;;;;;;;6.40;3.97;;;;;;;;;;5112381;28;20027;-71
2023/04/17 10:24:44;;;;;;;10.73;4.65;;;;;;;;;;5113509;28;20468;-70
2023/04/17 10:27:25;;;;;;;7.72;3.97;;;;;;;;;;5113874;28;20052;-70
2023/04/17 10:30:15;;;;;;;11.15;4.43;;;;;;;;;;5113748;28;20073;-70
2023/04/17 10:32:42;;;;;;;8.82;4.28;;;;;;;;;;5108163;28;20435;-71
2023/04/17 10:35:18;;;;;;;8.02;4.30;;;;;;;;;;5113483;28;20038;-73
2023/04/17 10:37:50;;;;;;;7.07;3.75;;;;;;;;;;5112031;28;20387;-73
2023/04/17 10:40:23;;;;;;;6.40;3.53;;;;;;;;;;5112235;28;20024;-72
2023/04/17 10:43:08;;;;;;;8.65;4.50;;;;;;;;;;5113350;28;20080;-72
2023/04/17 10:45:55;;;;;;;7.60;4.43;;;;;;;;;;5113157;28;20043;-72
2023/04/17 10:48:21;;;;;;;5.53;3.80;;;;;;;;;;5113209;27;20024;-72
2023/04/17 10:50:47;;;;;;;6.57;3.85;;;;;;;;;;5113155;28;20031;-71
2023/04/17 10:53:32;;;;;;;8.48;3.80;;;;;;;;;;5111777;28;20026;-70
2023/04/17 10:55:58;;;;;;;6.43;3.50;;;;;;;;;;5113128;28;20032;-70
2023/04/17 10:58:24;;;;;;;5.68;3.65;;;;;;;;;;5112862;28;20020;-71
2023/04/17 11:00:51;;;;;;;6.13;3.72;;;;;;;;;;5112766;28;20031;-71
2023/04/17 11:03:17;;;;;;;5.03;2.97;;;;;;;;;;5113214;28;20035;-71
2023/04/17 11:05:46;;;;;;;9.70;4.20;;;;;;;;;;5111581;28;20482;-71
2023/04/17 11:08:12;;;;;;;7.35;3.58;;;;;;;;;;5112824;28;20024;-71
2023/04/17 11:10:39;;;;;;;5.78;3.65;;;;;;;;;;5112728;28;20020;-71
2023/04/17 11:13:05;;;;;;;7.88;4.40;;;;;;;;;;5112505;28;20369;-71
2023/04/17 11:15:35;;;;;;;6.47;4.50;;;;;;;;;;5112735;28;20016;-70
2023/04/17 11:18:02;;;;;;;6.43;3.33;;;;;;;;;;5112861;28;20302;-72
2023/04/17 11:20:29;;;;;;;5.63;3.67;;;;;;;;;;5112800;28;20036;-71
2023/04/17 11:22:56;;;;;;;7.03;4.00;;;;;;;;;;5112639;28;20088;-70
2023/04/17 11:25:24;;;;;;;5.75;3.75;;;;;;;;;;5112737;28;20032;-70
2023/04/17 11:27:50;;;;;;;5.57;3.88;;;;;;;;;;5112487;28;20041;-71
2023/04/17 11:30:39;;;;;;;8.13;4.18;;;;;;;;;;5112694;28;20443;-70
2023/04/17 11:33:06;;;;;;;10.68;3.95;;;;;;;;;;5112822;27;20103;-70
2023/04/17 11:35:37;;;;;;;7.28;4.32;;;;;;;;;;5112651;28;20386;-70
2023/04/17 11:38:22;;;;;;;9.48;4.63;;;;;;;;;;5112743;28;20023;-70
2023/04/17 11:40:48;;;;;;;7.32;4.20;;;;;;;;;;5112144;28;20041;-72
2023/04/17 11:43:14;;;;;;;5.10;4.47;;;;;;;;;;5112216;28;20024;-70
2023/04/17 11:45:43;;;;;;;6.07;4.00;;;;;;;;;;5112085;28;20115;-72
2023/04/17 11:48:10;;;;;;;7.57;4.70;;;;;;;;;;5112300;28;20490;-72
2023/04/17 11:50:37;;;;;;;7.25;4.90;;;;;;;;;;5111665;28;20085;-72
2023/04/17 11:53:04;;;;;;;8.77;5.82;;;;;;;;;;5111921;28;20398;-71
2023/04/17 11:55:30;;;;;;;6.00;4.20;;;;;;;;;;5112234;28;20020;-71
2023/04/17 11:58:00;;;;;;;12.40;5.20;;;;;;;;;;5111935;28;20030;-69
2023/04/17 12:00:28;;;;;;;6.78;3.70;;;;;;;;;;5112144;28;20073;-70
2023/04/17 12:02:56;;;;;;;6.80;4.47;;;;;;;;;;5111963;27;20031;-69
2023/04/17 12:05:22;;;;;;;8.25;4.35;;;;;;;;;;5111776;28;20019;-69
2023/04/17 12:07:58;;;;;;;6.65;4.18;;;;;;;;;;5111855;28;20028;-71
2023/04/17 12:10:24;;;;;;;6.18;4.63;;;;;;;;;;5111627;28;20073;-71
2023/04/17 12:12:50;;;;;;;6.95;4.85;;;;;;;;;;5111890;28;20099;-70
2023/04/17 12:15:17;;;;;;;7.18;4.28;;;;;;;;;;5111754;28;20452;-71
2023/04/17 12:17:43;;;;;;;7.20;4.05;;;;;;;;;;5111513;28;20525;-70
2023/04/17 12:20:09;;;;;;;8.35;3.88;;;;;;;;;;5111406;28;20032;-72
2023/04/17 12:22:35;;;;;;;5.93;4.10;;;;;;;;;;5110478;28;20041;-71
2023/04/17 12:25:01;;;;;;;7.57;3.90;;;;;;;;;;5111495;28;20472;-71
2023/04/17 12:27:27;;;;;;;6.45;3.72;;;;;;;;;;5111481;28;20110;-72
2023/04/17 12:29:53;;;;;;;9.73;4.28;;;;;;;;;;5111880;28;20023;-71
2023/04/17 12:32:19;;;;;;;7.18;4.00;;;;;;;;;;5111403;28;20108;-71
2023/04/17 12:34:45;;;;;;;7.28;3.88;;;;;;;;;;5111510;28;20035;-71
2023/04/17 12:37:11;;;;;;;8.20;4.68;;;;;;;;;;5111454;28;20298;-71
2023/04/17 12:39:38;;;;;;;5.47;4.72;;;;;;;;;;5111349;28;20032;-71
2023/04/17 12:42:04;;;;;;;5.65;4.00;;;;;;;;;;5111158;28;20045;-71
2023/04/17 12:44:30;;;;;;;6.47;4.30;;;;;;;;;;5111663;28;20051;-71
2023/04/17 12:46:56;;;;;;;6.10;3.83;;;;;;;;;;5110965;28;20392;-71
2023/04/17 12:49:22;;;;;;;6.47;3.85;;;;;;;;;;5111502;28;20042;-72
2023/04/17 12:51:48;;;;;;;6.18;4.03;;;;;;;;;;5111452;28;20024;-72
2023/04/17 12:54:14;;;;;;;5.00;3.28;;;;;;;;;;5111275;28;20023;-71
2023/04/17 12:56:40;;;;;;;6.90;4.20;;;;;;;;;;5111015;28;20081;-72
2023/04/17 12:59:06;;;;;;;5.95;3.40;;;;;;;;;;5111287;28;20051;-71
2023/04/17 13:01:32;;;;;;;4.85;3.05;;;;;;;;;;5111236;28;20040;-71
2023/04/17 13:03:58;;;;;;;7.05;4.10;;;;;;;;;;5114670;28;20015;-70
2023/04/17 13:06:26;;;;;;;4.78;3.70;;;;;;;;;;5115332;28;20038;-71
2023/04/17 13:08:53;;;;;;;6.97;3.72;;;;;;;;;;5115282;28;20033;-70
2023/04/17 13:11:19;;;;;;;5.70;3.50;;;;;;;;;;5115130;28;20040;-71
2023/04/17 13:13:45;;;;;;;6.88;3.42;;;;;;;;;;5115023;28;20530;-71
2023/04/17 13:16:11;;;;;;;8.07;3.80;;;;;;;;;;5113787;28;20047;-70
2023/04/17 13:18:37;;;;;;;6.18;3.08;;;;;;;;;;5115031;28;20078;-71
2023/04/17 13:21:03;;;;;;;5.78;3.22;;;;;;;;;;5114771;28;20547;-70
2023/04/17 13:23:29;;;;;;;6.53;4.30;;;;;;;;;;5115290;28;20155;-71
2023/04/17 13:25:55;;;;;;;6.97;4.28;;;;;;;;;;5115249;28;20030;-70
2023/04/17 13:28:21;;;;;;;7.75;4.32;;;;;;;;;;5114918;28;20028;-70
2023/04/17 13:30:47;;;;;;;8.90;4.28;;;;;;;;;;5114848;28;20019;-70
2023/04/17 13:33:13;;;;;;;7.80;4.32;;;;;;;;;;5115280;28;20364;-71
2023/04/17 13:35:39;;;;;;;5.18;3.92;;;;;;;;;;5114670;28;20491;-72
2023/04/17 13:38:06;;;;;;;4.28;3.53;;;;;;;;;;5114767;28;20015;-72
2023/04/17 13:40:32;;;;;;;5.22;3.85;;;;;;;;;;5114499;28;20027;-71
2023/04/17 13:42:59;;;;;;;7.68;4.63;;;;;;;;;;5114543;28;20054;-71
2023/04/17 13:45:25;;;;;;;4.97;4.30;;;;;;;;;;5113258;28;20016;-70
2023/04/17 13:47:51;;;;;;;10.48;4.80;;;;;;;;;;5114446;28;20035;-72
2023/04/17 13:50:17;;;;;;;6.90;4.10;;;;;;;;;;5113411;28;20035;-70
2023/04/17 13:52:43;;;;;;;8.38;4.40;;;;;;;;;;5114749;28;20024;-71
2023/04/17 13:55:13;;;;;;;4.95;4.15;;;;;;;;;;5114725;28;20080;-71
2023/04/17 13:57:39;;;;;;;7.43;5.35;;;;;;;;;;5114548;27;20106;-71
2023/04/17 14:00:06;;;;;;;6.40;4.20;;;;;;;;;;5114338;28;20170;-71
2023/04/17 14:02:32;;;;;;;6.15;5.15;;;;;;;;;;5114539;28;20040;-71
2023/04/17 14:04:58;;;;;;;7.60;5.10;;;;;;;;;;5114125;28;20050;-71
2023/04/17 14:07:26;;;;;;;8.05;5.18;;;;;;;;;;5114268;28;20027;-70
2023/04/17 14:09:52;;;;;;;7.88;6.47;;;;;;;;;;5114145;28;20431;-71
2023/04/17 14:12:19;;;;;;;10.25;7.30;;;;;;;;;;5114573;28;20023;-70
2023/04/17 14:14:45;;;;;;;8.43;5.93;;;;;;;;;;5113732;28;20088;-70
2023/04/17 14:17:11;;;;;;;9.50;5.93;;;;;;;;;;5114085;28;20368;-70
2023/04/17 14:19:37;;;;;;;9.63;6.43;;;;;;;;;;5113729;28;20397;-70
2023/04/17 14:22:03;;;;;;;8.32;6.32;;;;;;;;;;5113949;28;20168;-68
2023/04/17 14:24:29;;;;;;;7.35;5.88;;;;;;;;;;5113963;28;20392;-70
2023/04/17 14:26:56;;;;;;;13.13;6.30;;;;;;;;;;5113614;28;20023;-71
2023/04/17 14:29:22;;;;;;;8.75;6.32;;;;;;;;;;5113758;28;20015;-70
2023/04/17 14:31:48;;;;;;;9.25;6.63;;;;;;;;;;5113770;28;20020;-71